sensor_id;sensor_type;location;lat;lon;timestamp;temperature;humidity
11647;DHT22;5880;52.342;9.662;2023-04-28T00:01:47;12.00;35.20
11647;DHT22;5880;52.342;9.662;2023-04-28T00:04:13;12.00;35.10
11647;DHT22;5880;52.342;9.662;2023-04-28T00:06:39;12.00;35.00
11647;DHT22;5880;52.342;9.662;2023-04-28T00:09:05;12.00;34.90
11647;DHT22;5880;52.342;9.662;2023-04-28T00:11:35;12.00;35.00
11647;DHT22;5880;52.342;9.662;2023-04-28T00:14:03;12.00;35.00
11647;DHT22;5880;52.342;9.662;2023-04-28T00:16:29;12.00;34.90
11647;DHT22;5880;52.342;9.662;2023-04-28T00:18:54;12.00;34.90
11647;DHT22;5880;52.342;9.662;2023-04-28T00:21:20;12.00;34.90
11647;DHT22;5880;52.342;9.662;2023-04-28T00:23:46;11.90;35.00
11647;DHT22;5880;52.342;9.662;2023-04-28T00:26:12;11.90;35.00
11647;DHT22;5880;52.342;9.662;2023-04-28T00:28:38;11.90;35.10
11647;DHT22;5880;52.342;9.662;2023-04-28T00:31:09;11.90;35.00
11647;DHT22;5880;52.342;9.662;2023-04-28T00:33:37;11.90;35.10
11647;DHT22;5880;52.342;9.662;2023-04-28T00:36:04;11.90;35.80
11647;DHT22;5880;52.342;9.662;2023-04-28T00:38:30;11.90;35.20
11647;DHT22;5880;52.342;9.662;2023-04-28T00:40:56;11.90;35.30
11647;DHT22;5880;52.342;9.662;2023-04-28T00:43:22;11.90;35.30
11647;DHT22;5880;52.342;9.662;2023-04-28T00:45:48;11.90;35.30
11647;DHT22;5880;52.342;9.662;2023-04-28T00:48:15;11.90;35.20
11647;DHT22;5880;52.342;9.662;2023-04-28T00:50:42;11.90;35.20
11647;DHT22;5880;52.342;9.662;2023-04-28T00:53:10;11.90;35.30
11647;DHT22;5880;52.342;9.662;2023-04-28T00:55:37;11.90;35.30
11647;DHT22;5880;52.342;9.662;2023-04-28T00:58:04;11.90;35.40
11647;DHT22;5880;52.342;9.662;2023-04-28T01:00:31;11.90;36.00
11647;DHT22;5880;52.342;9.662;2023-04-28T01:02:57;11.90;35.30
11647;DHT22;5880;52.342;9.662;2023-04-28T01:05:27;11.90;35.30
11647;DHT22;5880;52.342;9.662;2023-04-28T01:07:54;11.90;35.50
11647;DHT22;5880;52.342;9.662;2023-04-28T01:10:20;11.90;35.30
11647;DHT22;5880;52.342;9.662;2023-04-28T01:12:46;11.90;35.40
11647;DHT22;5880;52.342;9.662;2023-04-28T01:15:16;11.90;35.40
11647;DHT22;5880;52.342;9.662;2023-04-28T01:17:42;11.90;35.40
11647;DHT22;5880;52.342;9.662;2023-04-28T01:20:10;11.90;35.50
11647;DHT22;5880;52.342;9.662;2023-04-28T01:22:35;11.90;35.60
11647;DHT22;5880;52.342;9.662;2023-04-28T01:25:01;11.90;35.60
11647;DHT22;5880;52.342;9.662;2023-04-28T01:27:28;11.80;35.60
11647;DHT22;5880;52.342;9.662;2023-04-28T01:29:54;11.80;35.60
11647;DHT22;5880;52.342;9.662;2023-04-28T01:32:20;11.90;35.60
11647;DHT22;5880;52.342;9.662;2023-04-28T01:34:45;11.80;35.60
11647;DHT22;5880;52.342;9.662;2023-04-28T01:37:11;11.80;35.70
11647;DHT22;5880;52.342;9.662;2023-04-28T01:39:37;11.80;35.70
11647;DHT22;5880;52.342;9.662;2023-04-28T01:42:03;11.80;35.60
11647;DHT22;5880;52.342;9.662;2023-04-28T01:44:29;11.80;35.70
11647;DHT22;5880;52.342;9.662;2023-04-28T01:46:54;11.80;35.70
11647;DHT22;5880;52.342;9.662;2023-04-28T01:49:20;11.80;35.70
11647;DHT22;5880;52.342;9.662;2023-04-28T01:51:46;11.80;35.70
11647;DHT22;5880;52.342;9.662;2023-04-28T01:54:11;11.80;35.70
11647;DHT22;5880;52.342;9.662;2023-04-28T01:56:37;11.80;35.80
11647;DHT22;5880;52.342;9.662;2023-04-28T01:59:03;11.80;35.80
11647;DHT22;5880;52.342;9.662;2023-04-28T02:01:28;11.70;35.80
11647;DHT22;5880;52.342;9.662;2023-04-28T02:03:54;11.80;35.90
11647;DHT22;5880;52.342;9.662;2023-04-28T02:06:20;11.70;36.00
11647;DHT22;5880;52.342;9.662;2023-04-28T02:08:46;11.70;36.00
11647;DHT22;5880;52.342;9.662;2023-04-28T02:11:12;11.60;35.90
11647;DHT22;5880;52.342;9.662;2023-04-28T02:13:37;11.60;35.90
11647;DHT22;5880;52.342;9.662;2023-04-28T02:16:03;11.60;36.00
11647;DHT22;5880;52.342;9.662;2023-04-28T02:18:29;11.60;36.10
11647;DHT22;5880;52.342;9.662;2023-04-28T02:20:55;11.60;36.30
11647;DHT22;5880;52.342;9.662;2023-04-28T02:23:21;11.60;36.20
11647;DHT22;5880;52.342;9.662;2023-04-28T02:25:46;11.50;36.20
11647;DHT22;5880;52.342;9.662;2023-04-28T02:28:12;11.50;36.20
11647;DHT22;5880;52.342;9.662;2023-04-28T02:30:38;11.50;36.40
11647;DHT22;5880;52.342;9.662;2023-04-28T02:33:04;11.50;36.30
11647;DHT22;5880;52.342;9.662;2023-04-28T02:35:29;11.40;36.20
11647;DHT22;5880;52.342;9.662;2023-04-28T02:37:55;11.40;36.30
11647;DHT22;5880;52.342;9.662;2023-04-28T02:40:21;11.40;36.30
11647;DHT22;5880;52.342;9.662;2023-04-28T02:42:46;11.40;36.40
11647;DHT22;5880;52.342;9.662;2023-04-28T02:45:12;11.40;36.40
11647;DHT22;5880;52.342;9.662;2023-04-28T02:47:38;11.40;36.40
11647;DHT22;5880;52.342;9.662;2023-04-28T02:50:04;11.40;36.60
11647;DHT22;5880;52.342;9.662;2023-04-28T02:52:30;11.40;36.40
11647;DHT22;5880;52.342;9.662;2023-04-28T02:54:55;11.30;36.60
11647;DHT22;5880;52.342;9.662;2023-04-28T02:57:22;11.30;36.60
11647;DHT22;5880;52.342;9.662;2023-04-28T02:59:48;11.30;36.70
11647;DHT22;5880;52.342;9.662;2023-04-28T03:02:14;11.30;36.80
11647;DHT22;5880;52.342;9.662;2023-04-28T03:04:40;11.30;36.80
11647;DHT22;5880;52.342;9.662;2023-04-28T03:07:06;11.30;36.80
11647;DHT22;5880;52.342;9.662;2023-04-28T03:09:32;11.30;36.90
11647;DHT22;5880;52.342;9.662;2023-04-28T03:11:57;11.30;37.00
11647;DHT22;5880;52.342;9.662;2023-04-28T03:14:23;11.20;36.90
11647;DHT22;5880;52.342;9.662;2023-04-28T03:16:49;11.20;36.80
11647;DHT22;5880;52.342;9.662;2023-04-28T03:19:15;11.20;36.90
11647;DHT22;5880;52.342;9.662;2023-04-28T03:21:41;11.20;37.10
11647;DHT22;5880;52.342;9.662;2023-04-28T03:24:06;11.20;37.00
11647;DHT22;5880;52.342;9.662;2023-04-28T03:26:32;11.20;37.10
11647;DHT22;5880;52.342;9.662;2023-04-28T03:28:59;11.20;37.10
11647;DHT22;5880;52.342;9.662;2023-04-28T03:31:24;11.10;37.10
11647;DHT22;5880;52.342;9.662;2023-04-28T03:33:50;11.10;37.10
11647;DHT22;5880;52.342;9.662;2023-04-28T03:36:16;11.10;37.40
11647;DHT22;5880;52.342;9.662;2023-04-28T03:38:42;11.10;37.40
11647;DHT22;5880;52.342;9.662;2023-04-28T03:41:07;11.10;37.60
11647;DHT22;5880;52.342;9.662;2023-04-28T03:43:33;11.10;37.40
11647;DHT22;5880;52.342;9.662;2023-04-28T03:46:02;11.00;37.30
11647;DHT22;5880;52.342;9.662;2023-04-28T03:48:28;11.00;37.30
11647;DHT22;5880;52.342;9.662;2023-04-28T03:50:54;11.00;37.40
11647;DHT22;5880;52.342;9.662;2023-04-28T03:53:20;11.00;37.30
11647;DHT22;5880;52.342;9.662;2023-04-28T03:55:45;11.00;37.30
11647;DHT22;5880;52.342;9.662;2023-04-28T03:58:11;11.00;37.40
11647;DHT22;5880;52.342;9.662;2023-04-28T04:00:37;10.90;37.30
11647;DHT22;5880;52.342;9.662;2023-04-28T04:03:02;10.90;37.40
11647;DHT22;5880;52.342;9.662;2023-04-28T04:05:28;11.00;37.50
11647;DHT22;5880;52.342;9.662;2023-04-28T04:07:54;10.90;37.30
11647;DHT22;5880;52.342;9.662;2023-04-28T04:10:20;10.90;37.40
11647;DHT22;5880;52.342;9.662;2023-04-28T04:12:46;10.90;37.30
11647;DHT22;5880;52.342;9.662;2023-04-28T04:15:11;11.00;37.40
11647;DHT22;5880;52.342;9.662;2023-04-28T04:17:37;10.90;37.40
11647;DHT22;5880;52.342;9.662;2023-04-28T04:20:03;11.00;37.40
11647;DHT22;5880;52.342;9.662;2023-04-28T04:22:30;11.00;37.50
11647;DHT22;5880;52.342;9.662;2023-04-28T04:24:55;11.00;37.50
11647;DHT22;5880;52.342;9.662;2023-04-28T04:27:21;11.00;37.50
11647;DHT22;5880;52.342;9.662;2023-04-28T04:29:46;11.00;37.60
11647;DHT22;5880;52.342;9.662;2023-04-28T04:32:12;11.00;37.50
11647;DHT22;5880;52.342;9.662;2023-04-28T04:34:38;11.00;37.70
11647;DHT22;5880;52.342;9.662;2023-04-28T04:37:03;11.10;37.80
11647;DHT22;5880;52.342;9.662;2023-04-28T04:39:29;11.10;37.70
11647;DHT22;5880;52.342;9.662;2023-04-28T04:41:55;11.10;37.80
11647;DHT22;5880;52.342;9.662;2023-04-28T04:44:20;11.10;37.90
11647;DHT22;5880;52.342;9.662;2023-04-28T04:46:47;11.10;37.80
11647;DHT22;5880;52.342;9.662;2023-04-28T04:49:12;11.10;37.80
11647;DHT22;5880;52.342;9.662;2023-04-28T04:51:38;11.10;38.00
11647;DHT22;5880;52.342;9.662;2023-04-28T04:54:04;11.10;37.90
11647;DHT22;5880;52.342;9.662;2023-04-28T04:56:29;11.10;37.90
11647;DHT22;5880;52.342;9.662;2023-04-28T04:58:56;11.20;37.90
11647;DHT22;5880;52.342;9.662;2023-04-28T05:01:21;11.20;38.10
11647;DHT22;5880;52.342;9.662;2023-04-28T05:03:47;11.20;37.80
11647;DHT22;5880;52.342;9.662;2023-04-28T05:06:13;11.20;37.90
11647;DHT22;5880;52.342;9.662;2023-04-28T05:08:38;11.30;38.20
11647;DHT22;5880;52.342;9.662;2023-04-28T05:11:04;11.30;38.00
11647;DHT22;5880;52.342;9.662;2023-04-28T05:13:29;11.30;38.10
11647;DHT22;5880;52.342;9.662;2023-04-28T05:15:55;11.30;38.00
11647;DHT22;5880;52.342;9.662;2023-04-28T05:18:21;12.20;38.50
11647;DHT22;5880;52.342;9.662;2023-04-28T05:20:47;11.40;38.00
11647;DHT22;5880;52.342;9.662;2023-04-28T05:23:13;11.40;38.10
11647;DHT22;5880;52.342;9.662;2023-04-28T05:25:38;11.50;38.00
11647;DHT22;5880;52.342;9.662;2023-04-28T05:28:04;11.50;38.00
11647;DHT22;5880;52.342;9.662;2023-04-28T05:30:32;11.50;38.10
11647;DHT22;5880;52.342;9.662;2023-04-28T05:32:58;11.50;37.90
11647;DHT22;5880;52.342;9.662;2023-04-28T05:35:24;11.50;38.00
11647;DHT22;5880;52.342;9.662;2023-04-28T05:37:50;11.60;38.00
11647;DHT22;5880;52.342;9.662;2023-04-28T05:40:16;11.60;38.00
11647;DHT22;5880;52.342;9.662;2023-04-28T05:42:42;11.60;38.10
11647;DHT22;5880;52.342;9.662;2023-04-28T05:45:08;11.70;38.10
11647;DHT22;5880;52.342;9.662;2023-04-28T05:47:34;11.70;38.00
11647;DHT22;5880;52.342;9.662;2023-04-28T05:50:00;11.70;38.10
11647;DHT22;5880;52.342;9.662;2023-04-28T05:52:25;11.80;38.20
11647;DHT22;5880;52.342;9.662;2023-04-28T05:54:51;11.80;38.20
11647;DHT22;5880;52.342;9.662;2023-04-28T05:57:16;11.80;38.10
11647;DHT22;5880;52.342;9.662;2023-04-28T05:59:42;11.90;38.20
11647;DHT22;5880;52.342;9.662;2023-04-28T06:02:08;11.90;38.10
11647;DHT22;5880;52.342;9.662;2023-04-28T06:04:33;11.90;38.00
11647;DHT22;5880;52.342;9.662;2023-04-28T06:06:59;11.90;38.00
11647;DHT22;5880;52.342;9.662;2023-04-28T06:09:25;12.00;38.10
11647;DHT22;5880;52.342;9.662;2023-04-28T06:11:50;12.00;38.20
11647;DHT22;5880;52.342;9.662;2023-04-28T06:14:16;12.00;38.30
11647;DHT22;5880;52.342;9.662;2023-04-28T06:16:42;12.10;38.30
11647;DHT22;5880;52.342;9.662;2023-04-28T06:19:07;12.10;38.40
11647;DHT22;5880;52.342;9.662;2023-04-28T06:21:34;12.20;38.30
11647;DHT22;5880;52.342;9.662;2023-04-28T06:23:59;12.20;38.20
11647;DHT22;5880;52.342;9.662;2023-04-28T06:26:26;12.30;38.30
11647;DHT22;5880;52.342;9.662;2023-04-28T06:28:52;12.30;38.30
11647;DHT22;5880;52.342;9.662;2023-04-28T06:31:17;12.40;38.70
11647;DHT22;5880;52.342;9.662;2023-04-28T06:33:43;12.40;38.70
11647;DHT22;5880;52.342;9.662;2023-04-28T06:36:09;12.50;38.70
11647;DHT22;5880;52.342;9.662;2023-04-28T06:38:38;12.60;38.60
11647;DHT22;5880;52.342;9.662;2023-04-28T06:41:05;12.70;38.80
11647;DHT22;5880;52.342;9.662;2023-04-28T06:43:31;12.80;38.60
11647;DHT22;5880;52.342;9.662;2023-04-28T06:45:57;12.90;38.60
11647;DHT22;5880;52.342;9.662;2023-04-28T06:48:23;13.00;38.30
11647;DHT22;5880;52.342;9.662;2023-04-28T06:50:50;13.00;38.20
11647;DHT22;5880;52.342;9.662;2023-04-28T06:53:15;13.10;38.30
11647;DHT22;5880;52.342;9.662;2023-04-28T06:55:41;13.10;38.40
11647;DHT22;5880;52.342;9.662;2023-04-28T06:58:07;13.20;38.60
11647;DHT22;5880;52.342;9.662;2023-04-28T07:00:33;13.30;38.80
11647;DHT22;5880;52.342;9.662;2023-04-28T07:02:59;13.30;38.80
11647;DHT22;5880;52.342;9.662;2023-04-28T07:05:25;13.60;39.00
11647;DHT22;5880;52.342;9.662;2023-04-28T07:07:52;13.60;39.60
11647;DHT22;5880;52.342;9.662;2023-04-28T07:10:17;13.80;40.10
11647;DHT22;5880;52.342;9.662;2023-04-28T07:12:43;14.10;40.30
11647;DHT22;5880;52.342;9.662;2023-04-28T07:15:10;14.40;40.60
11647;DHT22;5880;52.342;9.662;2023-04-28T07:17:36;14.70;40.00
11647;DHT22;5880;52.342;9.662;2023-04-28T07:20:03;15.00;38.60
11647;DHT22;5880;52.342;9.662;2023-04-28T07:22:29;15.20;38.10
11647;DHT22;5880;52.342;9.662;2023-04-28T07:24:55;15.30;37.50
11647;DHT22;5880;52.342;9.662;2023-04-28T07:27:21;15.40;37.50
11647;DHT22;5880;52.342;9.662;2023-04-28T07:29:50;15.50;37.50
11647;DHT22;5880;52.342;9.662;2023-04-28T07:32:15;15.50;37.20
11647;DHT22;5880;52.342;9.662;2023-04-28T07:34:42;15.50;36.80
11647;DHT22;5880;52.342;9.662;2023-04-28T07:37:08;15.50;36.90
11647;DHT22;5880;52.342;9.662;2023-04-28T07:39:35;15.50;37.10
11647;DHT22;5880;52.342;9.662;2023-04-28T07:42:03;15.50;37.00
11647;DHT22;5880;52.342;9.662;2023-04-28T07:44:29;15.40;36.90
11647;DHT22;5880;52.342;9.662;2023-04-28T07:46:56;15.40;37.10
11647;DHT22;5880;52.342;9.662;2023-04-28T07:49:21;15.40;37.10
11647;DHT22;5880;52.342;9.662;2023-04-28T07:51:47;15.50;37.00
11647;DHT22;5880;52.342;9.662;2023-04-28T07:54:14;15.50;36.70
11647;DHT22;5880;52.342;9.662;2023-04-28T07:56:39;15.40;36.40
11647;DHT22;5880;52.342;9.662;2023-04-28T07:59:05;15.40;36.40
11647;DHT22;5880;52.342;9.662;2023-04-28T08:01:31;15.40;36.30
11647;DHT22;5880;52.342;9.662;2023-04-28T08:03:56;15.40;36.40
11647;DHT22;5880;52.342;9.662;2023-04-28T08:06:22;15.40;36.50
11647;DHT22;5880;52.342;9.662;2023-04-28T08:08:48;15.40;36.50
11647;DHT22;5880;52.342;9.662;2023-04-28T08:11:13;15.40;36.40
11647;DHT22;5880;52.342;9.662;2023-04-28T08:13:39;15.40;36.10
11647;DHT22;5880;52.342;9.662;2023-04-28T08:16:05;15.40;36.30
11647;DHT22;5880;52.342;9.662;2023-04-28T08:18:31;15.50;37.20
11647;DHT22;5880;52.342;9.662;2023-04-28T08:20:57;15.50;36.70
11647;DHT22;5880;52.342;9.662;2023-04-28T08:23:22;15.50;36.40
11647;DHT22;5880;52.342;9.662;2023-04-28T08:25:52;15.50;36.40
11647;DHT22;5880;52.342;9.662;2023-04-28T08:28:18;15.60;36.10
11647;DHT22;5880;52.342;9.662;2023-04-28T08:30:44;15.60;36.00
11647;DHT22;5880;52.342;9.662;2023-04-28T08:33:09;15.60;36.00
11647;DHT22;5880;52.342;9.662;2023-04-28T08:35:35;15.60;35.90
11647;DHT22;5880;52.342;9.662;2023-04-28T08:38:01;15.60;36.00
11647;DHT22;5880;52.342;9.662;2023-04-28T08:40:26;15.60;36.20
11647;DHT22;5880;52.342;9.662;2023-04-28T08:42:55;15.70;36.40
11647;DHT22;5880;52.342;9.662;2023-04-28T08:45:23;15.70;36.20
11647;DHT22;5880;52.342;9.662;2023-04-28T08:47:50;15.80;36.20
11647;DHT22;5880;52.342;9.662;2023-04-28T08:50:21;15.80;36.10
11647;DHT22;5880;52.342;9.662;2023-04-28T08:52:47;15.80;36.30
11647;DHT22;5880;52.342;9.662;2023-04-28T08:55:17;15.80;37.00
11647;DHT22;5880;52.342;9.662;2023-04-28T08:57:45;15.90;36.10
11647;DHT22;5880;52.342;9.662;2023-04-28T09:00:14;15.80;36.00
11647;DHT22;5880;52.342;9.662;2023-04-28T09:02:40;15.90;36.10
11647;DHT22;5880;52.342;9.662;2023-04-28T09:05:10;15.90;36.20
11647;DHT22;5880;52.342;9.662;2023-04-28T09:07:36;15.80;36.00
11647;DHT22;5880;52.342;9.662;2023-04-28T09:12:45;15.80;36.10
11647;DHT22;5880;52.342;9.662;2023-04-28T09:15:24;15.80;36.40
11647;DHT22;5880;52.342;9.662;2023-04-28T09:17:55;15.70;36.30
11647;DHT22;5880;52.342;9.662;2023-04-28T09:20:29;15.70;36.40
11647;DHT22;5880;52.342;9.662;2023-04-28T09:23:20;15.80;36.60
11647;DHT22;5880;52.342;9.662;2023-04-28T09:26:06;15.80;36.90
11647;DHT22;5880;52.342;9.662;2023-04-28T09:28:33;15.80;36.80
11647;DHT22;5880;52.342;9.662;2023-04-28T09:31:00;15.90;37.00
11647;DHT22;5880;52.342;9.662;2023-04-28T09:33:27;16.00;36.90
11647;DHT22;5880;52.342;9.662;2023-04-28T09:35:53;16.00;36.90
11647;DHT22;5880;52.342;9.662;2023-04-28T09:38:20;16.00;36.90
11647;DHT22;5880;52.342;9.662;2023-04-28T09:40:57;16.10;36.80
11647;DHT22;5880;52.342;9.662;2023-04-28T09:43:33;16.20;36.90
11647;DHT22;5880;52.342;9.662;2023-04-28T09:46:01;16.20;37.00
11647;DHT22;5880;52.342;9.662;2023-04-28T09:48:33;16.30;37.00
11647;DHT22;5880;52.342;9.662;2023-04-28T09:51:00;16.30;36.90
11647;DHT22;5880;52.342;9.662;2023-04-28T09:53:28;16.40;36.60
11647;DHT22;5880;52.342;9.662;2023-04-28T09:55:56;16.40;36.50
11647;DHT22;5880;52.342;9.662;2023-04-28T09:58:24;16.40;36.50
11647;DHT22;5880;52.342;9.662;2023-04-28T10:00:55;16.40;36.40
11647;DHT22;5880;52.342;9.662;2023-04-28T10:03:27;16.40;37.10
11647;DHT22;5880;52.342;9.662;2023-04-28T10:05:56;16.40;36.90
11647;DHT22;5880;52.342;9.662;2023-04-28T10:08:23;16.40;36.80
11647;DHT22;5880;52.342;9.662;2023-04-28T10:10:51;16.40;36.80
11647;DHT22;5880;52.342;9.662;2023-04-28T10:13:19;16.40;36.70
11647;DHT22;5880;52.342;9.662;2023-04-28T10:15:47;16.40;36.60
11647;DHT22;5880;52.342;9.662;2023-04-28T10:18:14;16.40;36.70
11647;DHT22;5880;52.342;9.662;2023-04-28T10:20:45;16.40;36.80
11647;DHT22;5880;52.342;9.662;2023-04-28T10:26:10;16.40;37.10
11647;DHT22;5880;52.342;9.662;2023-04-28T10:28:48;16.40;36.90
11647;DHT22;5880;52.342;9.662;2023-04-28T10:31:18;16.40;37.00
11647;DHT22;5880;52.342;9.662;2023-04-28T10:33:48;16.40;37.00
11647;DHT22;5880;52.342;9.662;2023-04-28T10:36:49;16.40;37.00
11647;DHT22;5880;52.342;9.662;2023-04-28T10:39:17;16.40;37.00
11647;DHT22;5880;52.342;9.662;2023-04-28T10:41:44;16.50;37.60
11647;DHT22;5880;52.342;9.662;2023-04-28T10:47:08;16.60;37.50
11647;DHT22;5880;52.342;9.662;2023-04-28T10:55:33;16.80;37.50
11647;DHT22;5880;52.342;9.662;2023-04-28T11:00:47;16.80;37.30
11647;DHT22;5880;52.342;9.662;2023-04-28T11:16:58;16.90;38.00
11647;DHT22;5880;52.342;9.662;2023-04-28T11:19:33;16.80;37.80
11647;DHT22;5880;52.342;9.662;2023-04-28T11:22:01;16.90;38.00
11647;DHT22;5880;52.342;9.662;2023-04-28T11:24:29;16.90;38.20
11647;DHT22;5880;52.342;9.662;2023-04-28T11:26:56;16.90;38.10
11647;DHT22;5880;52.342;9.662;2023-04-28T11:29:33;17.00;38.20
11647;DHT22;5880;52.342;9.662;2023-04-28T11:32:05;17.00;38.30
11647;DHT22;5880;52.342;9.662;2023-04-28T11:34:33;17.10;38.10
11647;DHT22;5880;52.342;9.662;2023-04-28T11:37:00;17.20;37.90
11647;DHT22;5880;52.342;9.662;2023-04-28T11:39:27;17.20;37.90
11647;DHT22;5880;52.342;9.662;2023-04-28T11:41:55;17.20;37.80
11647;DHT22;5880;52.342;9.662;2023-04-28T11:44:25;17.30;37.70
11647;DHT22;5880;52.342;9.662;2023-04-28T11:46:57;17.40;37.80
11647;DHT22;5880;52.342;9.662;2023-04-28T11:52:08;17.30;37.70
11647;DHT22;5880;52.342;9.662;2023-04-28T11:54:35;17.30;37.70
11647;DHT22;5880;52.342;9.662;2023-04-28T11:57:01;17.30;37.60
11647;DHT22;5880;52.342;9.662;2023-04-28T11:59:34;17.30;37.70
11647;DHT22;5880;52.342;9.662;2023-04-28T12:02:02;17.30;37.70
11647;DHT22;5880;52.342;9.662;2023-04-28T12:07:06;17.30;38.60
11647;DHT22;5880;52.342;9.662;2023-04-28T12:09:36;17.30;38.70
11647;DHT22;5880;52.342;9.662;2023-04-28T12:12:11;17.30;38.60
11647;DHT22;5880;52.342;9.662;2023-04-28T12:14:57;17.20;38.90
11647;DHT22;5880;52.342;9.662;2023-04-28T12:19:53;17.10;39.30
11647;DHT22;5880;52.342;9.662;2023-04-28T12:22:20;17.00;39.50
11647;DHT22;5880;52.342;9.662;2023-04-28T12:25:02;17.00;39.60
11647;DHT22;5880;52.342;9.662;2023-04-28T12:27:32;16.90;41.50
11647;DHT22;5880;52.342;9.662;2023-04-28T12:29:59;16.90;40.60
11647;DHT22;5880;52.342;9.662;2023-04-28T12:32:41;16.80;41.20
11647;DHT22;5880;52.342;9.662;2023-04-28T12:35:08;16.80;42.90
11647;DHT22;5880;52.342;9.662;2023-04-28T12:37:34;16.80;41.00
11647;DHT22;5880;52.342;9.662;2023-04-28T12:40:00;16.70;41.40
11647;DHT22;5880;52.342;9.662;2023-04-28T12:42:28;16.70;41.70
11647;DHT22;5880;52.342;9.662;2023-04-28T12:44:54;16.60;41.70
11647;DHT22;5880;52.342;9.662;2023-04-28T12:47:19;16.60;42.10
11647;DHT22;5880;52.342;9.662;2023-04-28T12:49:45;16.60;42.80
11647;DHT22;5880;52.342;9.662;2023-04-28T12:52:13;16.60;42.40
11647;DHT22;5880;52.342;9.662;2023-04-28T12:54:38;16.60;42.40
11647;DHT22;5880;52.342;9.662;2023-04-28T12:57:14;16.60;42.50
11647;DHT22;5880;52.342;9.662;2023-04-28T12:59:41;16.60;42.50
11647;DHT22;5880;52.342;9.662;2023-04-28T13:02:07;16.60;42.50
11647;DHT22;5880;52.342;9.662;2023-04-28T13:04:33;16.60;42.80
11647;DHT22;5880;52.342;9.662;2023-04-28T13:06:59;16.60;43.10
11647;DHT22;5880;52.342;9.662;2023-04-28T13:09:25;16.60;42.80
11647;DHT22;5880;52.342;9.662;2023-04-28T13:11:52;16.60;43.20
11647;DHT22;5880;52.342;9.662;2023-04-28T13:14:21;16.60;43.20
11647;DHT22;5880;52.342;9.662;2023-04-28T13:16:47;16.60;43.30
11647;DHT22;5880;52.342;9.662;2023-04-28T13:19:13;16.70;43.30
11647;DHT22;5880;52.342;9.662;2023-04-28T13:21:42;16.60;43.40
11647;DHT22;5880;52.342;9.662;2023-04-28T13:24:09;16.70;43.80
11647;DHT22;5880;52.342;9.662;2023-04-28T13:26:35;16.70;43.50
11647;DHT22;5880;52.342;9.662;2023-04-28T13:29:05;16.60;43.10
11647;DHT22;5880;52.342;9.662;2023-04-28T13:31:33;16.70;43.10
11647;DHT22;5880;52.342;9.662;2023-04-28T13:33:58;16.70;43.40
11647;DHT22;5880;52.342;9.662;2023-04-28T13:36:26;16.70;43.30
11647;DHT22;5880;52.342;9.662;2023-04-28T13:38:54;16.70;43.00
11647;DHT22;5880;52.342;9.662;2023-04-28T13:41:20;16.70;43.40
11647;DHT22;5880;52.342;9.662;2023-04-28T13:43:46;16.70;43.20
11647;DHT22;5880;52.342;9.662;2023-04-28T13:46:12;16.70;43.10
11647;DHT22;5880;52.342;9.662;2023-04-28T13:48:39;16.70;43.20
11647;DHT22;5880;52.342;9.662;2023-04-28T13:51:06;16.70;43.10
11647;DHT22;5880;52.342;9.662;2023-04-28T13:53:33;16.70;43.00
11647;DHT22;5880;52.342;9.662;2023-04-28T13:56:00;16.70;43.20
11647;DHT22;5880;52.342;9.662;2023-04-28T13:58:27;16.70;43.10
11647;DHT22;5880;52.342;9.662;2023-04-28T14:00:53;16.70;43.00
11647;DHT22;5880;52.342;9.662;2023-04-28T14:03:20;16.70;43.40
11647;DHT22;5880;52.342;9.662;2023-04-28T14:05:51;16.70;43.30
11647;DHT22;5880;52.342;9.662;2023-04-28T14:08:19;16.70;43.60
11647;DHT22;5880;52.342;9.662;2023-04-28T14:10:45;16.70;43.70
11647;DHT22;5880;52.342;9.662;2023-04-28T14:13:12;16.80;43.60
11647;DHT22;5880;52.342;9.662;2023-04-28T14:15:38;16.80;43.60
11647;DHT22;5880;52.342;9.662;2023-04-28T14:18:04;16.90;43.60
11647;DHT22;5880;52.342;9.662;2023-04-28T14:20:31;16.90;43.40
11647;DHT22;5880;52.342;9.662;2023-04-28T14:22:57;16.90;43.30
11647;DHT22;5880;52.342;9.662;2023-04-28T14:25:23;16.90;43.30
11647;DHT22;5880;52.342;9.662;2023-04-28T14:27:50;17.00;43.20
11647;DHT22;5880;52.342;9.662;2023-04-28T14:30:16;17.00;43.00
11647;DHT22;5880;52.342;9.662;2023-04-28T14:32:42;17.00;43.10
11647;DHT22;5880;52.342;9.662;2023-04-28T14:35:10;17.00;42.80
11647;DHT22;5880;52.342;9.662;2023-04-28T14:37:37;17.00;42.80
11647;DHT22;5880;52.342;9.662;2023-04-28T14:40:04;17.00;42.50
11647;DHT22;5880;52.342;9.662;2023-04-28T14:42:32;17.00;42.80
11647;DHT22;5880;52.342;9.662;2023-04-28T14:45:02;17.00;42.90
11647;DHT22;5880;52.342;9.662;2023-04-28T14:47:29;17.00;42.90
11647;DHT22;5880;52.342;9.662;2023-04-28T14:49:55;17.10;43.00
11647;DHT22;5880;52.342;9.662;2023-04-28T14:52:22;17.10;43.20
11647;DHT22;5880;52.342;9.662;2023-04-28T14:54:49;17.10;43.70
11647;DHT22;5880;52.342;9.662;2023-04-28T14:57:16;17.10;43.70
11647;DHT22;5880;52.342;9.662;2023-04-28T14:59:42;17.10;44.00
11647;DHT22;5880;52.342;9.662;2023-04-28T15:02:08;17.20;44.10
11647;DHT22;5880;52.342;9.662;2023-04-28T15:04:34;17.20;44.50
11647;DHT22;5880;52.342;9.662;2023-04-28T15:07:00;17.30;44.50
11647;DHT22;5880;52.342;9.662;2023-04-28T15:09:26;17.40;44.30
11647;DHT22;5880;52.342;9.662;2023-04-28T15:11:52;17.50;44.00
11647;DHT22;5880;52.342;9.662;2023-04-28T15:14:18;17.50;43.70
11647;DHT22;5880;52.342;9.662;2023-04-28T15:16:45;17.50;43.40
11647;DHT22;5880;52.342;9.662;2023-04-28T15:19:12;17.60;43.20
11647;DHT22;5880;52.342;9.662;2023-04-28T15:21:38;17.60;43.30
11647;DHT22;5880;52.342;9.662;2023-04-28T15:24:04;17.60;43.50
11647;DHT22;5880;52.342;9.662;2023-04-28T15:26:30;17.60;43.50
11647;DHT22;5880;52.342;9.662;2023-04-28T15:28:57;17.70;43.70
11647;DHT22;5880;52.342;9.662;2023-04-28T15:31:23;17.70;43.60
11647;DHT22;5880;52.342;9.662;2023-04-28T15:33:50;17.70;43.40
11647;DHT22;5880;52.342;9.662;2023-04-28T15:36:17;17.70;43.10
11647;DHT22;5880;52.342;9.662;2023-04-28T15:38:46;17.70;42.90
11647;DHT22;5880;52.342;9.662;2023-04-28T15:41:12;17.70;42.90
11647;DHT22;5880;52.342;9.662;2023-04-28T15:43:39;17.60;42.90
11647;DHT22;5880;52.342;9.662;2023-04-28T15:46:05;17.60;43.00
11647;DHT22;5880;52.342;9.662;2023-04-28T15:48:38;17.60;43.00
11647;DHT22;5880;52.342;9.662;2023-04-28T15:51:04;17.50;43.20
11647;DHT22;5880;52.342;9.662;2023-04-28T15:53:30;17.50;43.10
11647;DHT22;5880;52.342;9.662;2023-04-28T15:55:56;17.50;43.10
11647;DHT22;5880;52.342;9.662;2023-04-28T15:58:22;17.40;43.10
11647;DHT22;5880;52.342;9.662;2023-04-28T16:00:48;17.40;43.20
11647;DHT22;5880;52.342;9.662;2023-04-28T16:03:14;17.30;43.20
11647;DHT22;5880;52.342;9.662;2023-04-28T16:05:40;17.30;43.50
11647;DHT22;5880;52.342;9.662;2023-04-28T16:08:05;17.30;44.60
11647;DHT22;5880;52.342;9.662;2023-04-28T16:10:31;17.20;43.60
11647;DHT22;5880;52.342;9.662;2023-04-28T16:12:57;17.20;43.70
11647;DHT22;5880;52.342;9.662;2023-04-28T16:15:23;17.20;44.00
11647;DHT22;5880;52.342;9.662;2023-04-28T16:17:49;17.10;44.10
11647;DHT22;5880;52.342;9.662;2023-04-28T16:20:16;17.10;44.10
11647;DHT22;5880;52.342;9.662;2023-04-28T16:22:42;17.10;44.20